Terminal Aerodrome Forecast
Issued by NWS Dallas/Fort Worth, TX

Home | Current Version | Previous Version | Text Only | Print | Product List | Glossary On
Versions: 1 2 3 4 5 6 7 8 9 10 11 12 13 14 15 16 17 18 19 20 21 22 23 24 25 26 27
152
FTUS44 KFWD 270619 AAA
TAFACT
TAF AMD
KACT 270619Z 2706/2806 18013KT P6SM BKN015 BKN025
     FM270800 18014KT P6SM BKN012
     FM271700 18016KT P6SM BKN025
     FM271900 19014KT P6SM SCT035=

USA.gov is the U.S. government's official web portal to all federal, state and local government web resources and services.